createdAt,value
2022-08-22T00:01:10.858Z,29.20
2022-08-22T00:03:04.652Z,28.73
2022-08-22T00:03:10.647Z,28.39
2022-08-22T00:03:11.356Z,28.95
2022-08-22T00:03:50.477Z,29.28
2022-08-22T00:06:35.710Z,29.32
2022-08-22T00:09:24.806Z,29.34
2022-08-22T00:12:01.712Z,29.42
2022-08-22T00:14:39.854Z,29.47
2022-08-22T00:17:27.757Z,29.53
2022-08-22T00:20:06.312Z,29.58
2022-08-22T00:22:44.774Z,29.62
2022-08-22T00:25:35.256Z,29.68
2022-08-22T00:28:22.630Z,29.71
2022-08-22T00:31:09.493Z,29.81
2022-08-22T00:33:45.561Z,29.91
2022-08-22T00:36:17.984Z,29.99
2022-08-22T00:38:55.857Z,30.05
2022-08-22T00:41:31.179Z,30.12
2022-08-22T00:44:21.602Z,30.20
2022-08-22T00:46:54.462Z,30.25
2022-08-22T00:49:41.263Z,30.28
2022-08-22T00:52:16.278Z,30.34
2022-08-22T00:55:17.920Z,30.38
2022-08-22T00:57:50.260Z,30.44
2022-08-22T01:00:26.642Z,30.46
2022-08-22T01:02:58.427Z,30.50
2022-08-22T01:05:30.280Z,30.54
2022-08-22T01:08:19.458Z,30.57
2022-08-22T01:11:14.548Z,30.59
2022-08-22T01:13:52.544Z,30.64
2022-08-22T01:16:33.002Z,30.65
2022-08-22T01:19:23.044Z,30.68
2022-08-22T01:21:54.776Z,30.71
2022-08-22T01:25:07.825Z,30.73
2022-08-22T01:27:40.568Z,30.78
2022-08-22T01:30:20.020Z,30.80
2022-08-22T01:33:01.126Z,30.82
2022-08-22T01:35:51.676Z,30.84
2022-08-22T01:38:37.487Z,30.64
2022-08-22T01:41:18.119Z,30.56
2022-08-22T01:44:01.301Z,30.48
2022-08-22T01:46:40.546Z,30.45
2022-08-22T01:49:17.804Z,30.46
2022-08-22T01:51:58.343Z,30.56
2022-08-22T01:54:53.439Z,30.66
2022-08-22T01:57:26.090Z,30.75
2022-08-22T02:00:00.808Z,30.84
2022-08-22T02:02:44.091Z,30.91
2022-08-22T02:05:19.978Z,30.97
2022-08-22T02:07:59.491Z,31.02
2022-08-22T02:10:46.940Z,31.07
2022-08-22T02:13:21.894Z,31.12
2022-08-22T02:16:16.657Z,31.18
2022-08-22T02:18:48.492Z,31.24
2022-08-22T02:21:31.903Z,31.28
2022-08-22T02:24:09.731Z,31.31
2022-08-22T02:27:05.728Z,31.34
2022-08-22T02:29:44.917Z,31.36
2022-08-22T02:32:22.942Z,31.42
2022-08-22T02:35:01.747Z,31.45
2022-08-22T02:37:36.953Z,31.48
2022-08-22T02:40:14.868Z,31.51
2022-08-22T02:42:54.055Z,31.55
2022-08-22T02:45:31.607Z,31.57
2022-08-22T02:48:03.484Z,31.59
2022-08-22T02:50:47.500Z,31.63
2022-08-22T02:53:22.599Z,31.65
2022-08-22T02:56:10.749Z,31.68
2022-08-22T02:59:05.144Z,31.69
2022-08-22T03:01:42.517Z,31.73
2022-08-22T03:04:29.607Z,31.76
2022-08-22T03:07:13.654Z,31.77
2022-08-22T03:09:45.732Z,31.80
2022-08-22T03:12:22.520Z,31.82
2022-08-22T03:15:24.008Z,31.85
2022-08-22T03:18:08.155Z,31.87
2022-08-22T03:20:39.944Z,31.89
2022-08-22T03:23:17.825Z,31.89
2022-08-22T03:25:54.193Z,31.92
2022-08-22T03:28:30.501Z,31.92
2022-08-22T03:31:10.194Z,31.95
2022-08-22T03:33:43.878Z,31.97
2022-08-22T03:36:19.090Z,31.97
2022-08-22T03:38:56.153Z,31.98
2022-08-22T03:41:51.497Z,31.99
2022-08-22T03:44:40.055Z,32.01
2022-08-22T03:47:17.707Z,32.01
2022-08-22T03:50:07.660Z,32.03
2022-08-22T03:53:05.531Z,32.03
2022-08-22T03:55:55.380Z,32.04
2022-08-22T03:58:27.886Z,32.04
2022-08-22T04:01:13.314Z,32.05
2022-08-22T04:03:45.153Z,32.07
2022-08-22T04:06:36.746Z,32.08
2022-08-22T04:09:29.108Z,32.09
2022-08-22T04:12:06.942Z,32.10
2022-08-22T04:14:39.194Z,32.10
2022-08-22T04:17:29.265Z,32.12
2022-08-22T04:20:04.235Z,32.13
2022-08-22T04:23:05.462Z,32.15
2022-08-22T04:25:45.167Z,32.16
2022-08-22T04:28:23.416Z,32.17
2022-08-22T04:31:04.431Z,32.21
2022-08-22T04:33:52.941Z,32.23
2022-08-22T04:36:27.921Z,32.24
2022-08-22T04:39:31.891Z,32.26
2022-08-22T04:42:32.208Z,32.27
2022-08-22T04:45:11.836Z,32.30
2022-08-22T04:47:47.241Z,32.33
2022-08-22T04:50:56.129Z,32.36
2022-08-22T04:53:28.780Z,32.36
2022-08-22T04:56:07.345Z,32.40
2022-08-22T04:58:48.569Z,32.43
2022-08-22T05:01:28.172Z,32.44
2022-08-22T05:04:01.855Z,32.45
2022-08-22T05:06:36.027Z,32.45
2022-08-22T05:09:16.186Z,32.46
2022-08-22T05:11:50.934Z,32.49
2022-08-22T05:14:27.626Z,32.51
2022-08-22T05:16:59.778Z,32.54
2022-08-22T05:19:36.254Z,32.56
2022-08-22T05:22:16.183Z,32.59
2022-08-22T05:24:50.055Z,32.62
2022-08-22T05:27:27.598Z,32.64
2022-08-22T05:30:03.871Z,32.65
2022-08-22T05:32:42.524Z,32.67
2022-08-22T05:35:17.557Z,32.67
2022-08-22T05:37:53.468Z,32.68
2022-08-22T05:40:27.826Z,32.71
2022-08-22T05:43:00.264Z,32.75
2022-08-22T05:45:33.874Z,32.76
2022-08-22T05:48:17.424Z,32.78
2022-08-22T05:51:10.598Z,32.81
2022-08-22T05:53:45.870Z,32.83
2022-08-22T05:56:36.996Z,32.84
2022-08-22T05:59:34.759Z,32.87
2022-08-22T06:02:21.932Z,32.89
2022-08-22T06:05:02.315Z,32.91
2022-08-22T06:07:48.933Z,32.94
2022-08-22T06:10:27.299Z,32.97
2022-08-22T06:13:03.734Z,33.00
2022-08-22T06:15:54.411Z,33.03
2022-08-22T06:18:27.879Z,33.06
2022-08-22T06:21:04.844Z,33.10
2022-08-22T06:23:43.891Z,33.13
2022-08-22T06:26:20.878Z,33.18
2022-08-22T06:28:55.823Z,33.22
2022-08-22T06:31:33.277Z,33.25
2022-08-22T06:34:05.345Z,33.28
2022-08-22T06:36:39.697Z,33.29
2022-08-22T06:39:21.786Z,33.32
2022-08-22T06:41:59.682Z,33.37
2022-08-22T06:44:37.191Z,33.41
2022-08-22T06:47:12.059Z,33.46
2022-08-22T06:49:47.242Z,33.48
2022-08-22T06:52:27.242Z,33.51
2022-08-22T06:55:02.011Z,33.55
2022-08-22T06:57:34.136Z,33.56
2022-08-22T07:00:12.432Z,33.58
2022-08-22T07:03:07.672Z,33.60
2022-08-22T07:05:42.039Z,33.63
2022-08-22T07:08:16.465Z,33.64
2022-08-22T07:10:58.476Z,33.68
2022-08-22T07:13:30.641Z,33.69
2022-08-22T07:16:07.033Z,33.72
2022-08-22T07:18:48.893Z,33.75
2022-08-22T07:21:29.490Z,33.79
2022-08-22T07:24:03.052Z,33.83
2022-08-22T07:26:35.494Z,33.85
2022-08-22T07:29:12.016Z,33.89
2022-08-22T07:32:07.274Z,33.94
2022-08-22T07:34:42.558Z,33.96
2022-08-22T07:37:34.232Z,34.00
2022-08-22T07:40:09.350Z,34.05
2022-08-22T07:43:00.015Z,34.09
2022-08-22T07:45:39.430Z,34.13
2022-08-22T07:48:26.239Z,34.17
2022-08-22T07:51:04.977Z,34.20
2022-08-22T07:54:00.633Z,34.24
2022-08-22T07:56:37.709Z,34.29
2022-08-22T07:59:16.340Z,34.31
2022-08-22T08:01:55.079Z,34.35
2022-08-22T08:04:30.751Z,34.38
2022-08-22T08:07:04.158Z,34.38
2022-08-22T08:09:39.465Z,34.40
2022-08-22T08:12:12.998Z,34.41
2022-08-22T08:14:46.813Z,34.43
2022-08-22T08:17:31.382Z,34.45
2022-08-22T08:20:09.341Z,34.47
2022-08-22T08:22:42.207Z,34.47
2022-08-22T08:25:19.488Z,34.50
2022-08-22T08:28:10.316Z,34.51
2022-08-22T08:30:45.875Z,34.54
2022-08-22T08:33:25.285Z,34.55
2022-08-22T08:36:04.995Z,34.57
2022-08-22T08:38:45.557Z,34.59
2022-08-22T08:41:35.350Z,34.59
2022-08-22T08:44:24.009Z,34.61
2022-08-22T08:47:04.056Z,34.60
2022-08-22T08:49:50.582Z,34.59
2022-08-22T08:52:38.842Z,34.59
2022-08-22T08:55:22.017Z,34.57
2022-08-22T08:57:54.506Z,34.55
2022-08-22T09:00:48.959Z,34.53
2022-08-22T09:03:40.095Z,34.51
2022-08-22T09:06:29.932Z,34.48
2022-08-22T09:09:05.494Z,34.48
2022-08-22T09:11:40.104Z,34.45
2022-08-22T09:14:14.074Z,34.45
2022-08-22T09:16:58.436Z,34.42
2022-08-22T09:19:34.070Z,34.40
2022-08-22T09:22:06.863Z,34.39
2022-08-22T09:24:46.319Z,34.38
2022-08-22T09:27:22.988Z,34.39
2022-08-22T09:30:16.987Z,34.37
2022-08-22T09:32:56.333Z,34.36
2022-08-22T09:35:49.052Z,34.36
2022-08-22T09:38:27.695Z,34.34
2022-08-22T09:41:17.664Z,34.31
2022-08-22T09:44:09.287Z,34.31
2022-08-22T09:46:57.966Z,34.29
2022-08-22T09:49:37.088Z,34.29
2022-08-22T09:52:33.119Z,34.30
2022-08-22T09:55:35.072Z,34.28
2022-08-22T09:58:19.322Z,34.26
2022-08-22T10:00:57.119Z,34.25
2022-08-22T10:03:32.673Z,34.23
2022-08-22T10:06:09.809Z,34.22
2022-08-22T10:08:41.355Z,34.21
2022-08-22T10:11:28.821Z,34.06
2022-08-22T10:14:11.957Z,33.75
2022-08-22T10:17:00.618Z,33.54
2022-08-22T10:19:33.280Z,33.41
2022-08-22T10:22:07.593Z,33.32
2022-08-22T10:24:45.498Z,33.27
2022-08-22T10:27:24.985Z,33.24
2022-08-22T10:30:14.084Z,33.23
2022-08-22T10:32:51.035Z,33.24
2022-08-22T10:35:25.638Z,33.24
2022-08-22T10:38:02.480Z,33.20
2022-08-22T10:40:36.094Z,33.18
2022-08-22T10:43:15.528Z,33.19
2022-08-22T10:45:49.620Z,33.17
2022-08-22T10:48:25.082Z,33.12
2022-08-22T10:51:08.778Z,33.10
2022-08-22T10:53:55.969Z,33.07
2022-08-22T10:56:35.523Z,33.08
2022-08-22T10:59:07.124Z,33.06
2022-08-22T11:01:48.881Z,33.03
2022-08-22T11:04:41.237Z,32.99
2022-08-22T11:07:21.513Z,32.94
2022-08-22T11:09:58.433Z,32.91
2022-08-22T11:12:36.075Z,32.88
2022-08-22T11:15:34.470Z,32.86
2022-08-22T11:18:19.632Z,32.83
2022-08-22T11:20:51.107Z,32.81
2022-08-22T11:23:33.266Z,32.77
2022-08-22T11:26:11.370Z,32.75
2022-08-22T11:29:13.688Z,32.73
2022-08-22T11:31:51.988Z,32.71
2022-08-22T11:34:30.365Z,32.69
2022-08-22T11:37:20.663Z,32.68
2022-08-22T11:40:05.535Z,32.65
2022-08-22T11:42:49.588Z,32.63
2022-08-22T11:45:28.207Z,32.62
2022-08-22T11:48:19.888Z,32.60
2022-08-22T11:51:13.018Z,32.58
2022-08-22T11:54:03.780Z,32.56
2022-08-22T11:56:46.898Z,32.54
2022-08-22T11:59:20.966Z,32.54
2022-08-22T12:01:58.651Z,32.53
2022-08-22T12:04:42.677Z,32.51
2022-08-22T12:07:20.947Z,32.50
2022-08-22T12:10:13.692Z,32.47
2022-08-22T12:13:09.474Z,32.46
2022-08-22T12:16:01.335Z,32.44
2022-08-22T12:18:41.959Z,32.44
2022-08-22T12:21:24.081Z,32.46
2022-08-22T12:24:05.883Z,32.45
2022-08-22T12:26:56.733Z,32.44
2022-08-22T12:29:57.485Z,32.43
2022-08-22T12:32:50.363Z,32.41
2022-08-22T12:35:42.033Z,32.41
2022-08-22T12:38:38.355Z,32.39
2022-08-22T12:41:13.141Z,32.37
2022-08-22T12:43:49.636Z,32.42
2022-08-22T12:46:48.396Z,32.42
2022-08-22T12:49:30.632Z,32.44
2022-08-22T12:52:10.389Z,32.43
2022-08-22T12:54:45.171Z,32.43
2022-08-22T12:57:29.235Z,32.42
2022-08-22T13:00:05.814Z,32.41
2022-08-22T13:02:41.018Z,32.40
2022-08-22T13:05:20.038Z,32.39
2022-08-22T13:08:04.628Z,32.38
2022-08-22T13:10:37.508Z,32.38
2022-08-22T13:13:12.272Z,32.37
2022-08-22T13:15:53.841Z,32.34
2022-08-22T13:18:31.183Z,32.33
2022-08-22T13:21:04.852Z,32.33
2022-08-22T13:23:45.145Z,32.32
2022-08-22T13:26:34.522Z,32.31
2022-08-22T13:29:39.413Z,32.24
2022-08-22T13:32:23.483Z,32.14
2022-08-22T13:34:59.676Z,32.03
2022-08-22T13:37:37.871Z,32.01
2022-08-22T13:40:12.938Z,32.01
2022-08-22T13:42:49.437Z,32.01
2022-08-22T13:45:27.582Z,32.03
2022-08-22T13:48:03.788Z,31.99
2022-08-22T13:50:53.492Z,31.98
2022-08-22T13:53:42.369Z,31.99
2022-08-22T13:56:31.797Z,31.97
2022-08-22T13:59:09.665Z,31.95
2022-08-22T14:01:50.748Z,31.92
2022-08-22T14:04:28.713Z,31.83
2022-08-22T14:07:07.736Z,31.72
2022-08-22T14:09:57.779Z,31.63
2022-08-22T14:12:33.690Z,31.53
2022-08-22T14:15:25.330Z,31.45
2022-08-22T14:18:00.313Z,31.41
2022-08-22T14:20:35.507Z,31.34
2022-08-22T14:23:10.432Z,31.26
2022-08-22T14:25:43.509Z,31.22
2022-08-22T14:28:32.637Z,31.16
2022-08-22T14:31:13.862Z,31.12
2022-08-22T14:33:50.654Z,31.08
2022-08-22T14:36:31.671Z,31.05
2022-08-22T14:39:11.249Z,30.99
2022-08-22T14:41:55.543Z,30.93
2022-08-22T14:44:33.652Z,30.89
2022-08-22T14:47:08.330Z,30.86
2022-08-22T14:50:00.930Z,30.81
2022-08-22T14:52:32.793Z,30.75
2022-08-22T14:55:10.540Z,30.75
2022-08-22T14:57:54.254Z,30.69
2022-08-22T15:00:28.519Z,30.65
2022-08-22T15:03:18.510Z,30.59
2022-08-22T15:05:57.195Z,30.57
2022-08-22T15:08:33.206Z,30.55
2022-08-22T15:11:23.575Z,30.54
2022-08-22T15:14:01.065Z,30.53
2022-08-22T15:16:37.944Z,30.50
2022-08-22T15:19:27.442Z,30.53
2022-08-22T15:22:13.498Z,30.55
2022-08-22T15:24:48.457Z,30.55
2022-08-22T15:27:22.298Z,30.53
2022-08-22T15:29:59.050Z,30.53
2022-08-22T15:32:32.317Z,30.48
2022-08-22T15:35:10.444Z,30.46
2022-08-22T15:37:56.626Z,30.44
2022-08-22T15:40:45.862Z,30.40
2022-08-22T15:43:34.850Z,30.38
2022-08-22T15:46:25.321Z,30.35
2022-08-22T15:49:11.080Z,30.31
2022-08-22T15:52:03.020Z,30.31
2022-08-22T15:54:54.717Z,30.25
2022-08-22T15:57:36.515Z,30.23
2022-08-22T16:00:24.353Z,30.20
2022-08-22T16:03:09.174Z,30.17
2022-08-22T16:05:53.269Z,30.14
2022-08-22T16:08:27.091Z,30.11
2022-08-22T16:11:05.350Z,30.09
2022-08-22T16:13:42.043Z,30.06
2022-08-22T16:16:13.992Z,30.05
2022-08-22T16:18:45.862Z,30.02
2022-08-22T16:21:20.559Z,30.01
2022-08-22T16:23:58.498Z,29.98
2022-08-22T16:26:33.009Z,29.96
2022-08-22T16:29:17.973Z,29.96
2022-08-22T16:31:49.943Z,29.94
2022-08-22T16:34:24.593Z,29.92
2022-08-22T16:37:24.545Z,29.91
2022-08-22T16:40:09.023Z,29.93
2022-08-22T16:42:48.318Z,29.92
2022-08-22T16:45:20.101Z,29.89
2022-08-22T16:47:58.287Z,29.90
2022-08-22T16:50:34.385Z,29.88
2022-08-22T16:53:11.599Z,29.84
2022-08-22T16:55:44.938Z,29.84
2022-08-22T16:58:55.909Z,29.84
2022-08-22T17:01:44.544Z,29.92
2022-08-22T17:04:34.275Z,30.01
2022-08-22T17:07:05.724Z,30.07
2022-08-22T17:09:50.803Z,30.09
2022-08-22T17:12:31.125Z,30.14
2022-08-22T17:15:20.868Z,30.16
2022-08-22T17:18:10.693Z,30.16
2022-08-22T17:21:11.559Z,30.17
2022-08-22T17:23:53.536Z,30.19
2022-08-22T17:26:38.237Z,30.19
2022-08-22T17:29:22.106Z,30.19
2022-08-22T17:31:56.394Z,30.18
2022-08-22T17:34:51.055Z,30.19
2022-08-22T17:37:40.790Z,30.19
2022-08-22T17:40:25.814Z,30.18
2022-08-22T17:43:15.647Z,30.15
2022-08-22T17:46:02.578Z,30.13
2022-08-22T17:48:44.000Z,30.14
2022-08-22T17:51:18.739Z,30.14
2022-08-22T17:53:52.711Z,30.12
2022-08-22T17:56:26.954Z,30.10
2022-08-22T17:59:04.334Z,30.09
2022-08-22T18:01:48.416Z,30.10
2022-08-22T18:04:26.542Z,30.08
2022-08-22T18:07:17.489Z,30.07
2022-08-22T18:09:54.104Z,30.05
2022-08-22T18:12:34.289Z,30.03
2022-08-22T18:15:09.524Z,30.02
2022-08-22T18:17:49.761Z,30.03
2022-08-22T18:20:24.427Z,30.02
2022-08-22T18:22:58.631Z,29.99
2022-08-22T18:25:34.155Z,29.98
2022-08-22T18:28:14.196Z,29.96
2022-08-22T18:30:57.818Z,29.97
2022-08-22T18:33:33.405Z,29.96
2022-08-22T18:36:28.036Z,29.95
2022-08-22T18:39:04.901Z,29.93
2022-08-22T18:41:40.454Z,29.89
2022-08-22T18:44:14.881Z,29.88
2022-08-22T18:46:52.101Z,29.90
2022-08-22T18:49:26.592Z,29.88
2022-08-22T18:52:07.149Z,29.88
2022-08-22T18:54:38.555Z,29.88
2022-08-22T18:57:26.007Z,29.89
2022-08-22T18:59:58.022Z,29.84
2022-08-22T19:02:55.837Z,29.84
2022-08-22T19:05:46.212Z,29.83
2022-08-22T19:08:37.066Z,29.81
2022-08-22T19:11:09.359Z,29.80
2022-08-22T19:14:08.013Z,29.81
2022-08-22T19:16:51.554Z,29.80
2022-08-22T19:19:25.418Z,29.80
2022-08-22T19:22:20.961Z,29.79
2022-08-22T19:25:08.966Z,29.78
2022-08-22T19:27:42.933Z,29.77
2022-08-22T19:30:32.794Z,29.74
2022-08-22T19:33:06.936Z,29.75
2022-08-22T19:35:43.798Z,29.74
2022-08-22T19:38:35.204Z,29.74
2022-08-22T19:41:06.689Z,29.71
2022-08-22T19:43:39.754Z,29.71
2022-08-22T19:46:14.103Z,29.69
2022-08-22T19:48:50.163Z,29.71
2022-08-22T19:51:21.857Z,29.66
2022-08-22T19:53:53.638Z,29.69
2022-08-22T19:56:49.648Z,29.69
2022-08-22T19:59:39.573Z,29.66
2022-08-22T20:02:28.030Z,29.66
2022-08-22T20:04:59.441Z,29.66
2022-08-22T20:07:40.714Z,29.67
2022-08-22T20:10:18.278Z,29.64
2022-08-22T20:12:52.525Z,29.61
2022-08-22T20:15:26.850Z,29.64
2022-08-22T20:20:59.690Z,29.58
2022-08-22T20:23:32.698Z,29.58
2022-08-22T20:26:04.885Z,29.55
2022-08-22T20:28:36.424Z,29.51
2022-08-22T20:31:12.187Z,29.51
2022-08-22T20:33:46.078Z,29.52
2022-08-22T20:36:28.692Z,29.49
2022-08-22T20:39:07.639Z,29.48
2022-08-22T20:41:41.102Z,29.45
2022-08-22T20:44:18.651Z,29.45
2022-08-22T20:46:53.378Z,29.44
2022-08-22T20:49:26.497Z,29.42
2022-08-22T20:52:03.498Z,29.40
2022-08-22T20:54:36.709Z,29.40
2022-08-22T20:57:21.402Z,29.39
2022-08-22T20:59:52.943Z,29.40
2022-08-22T21:02:50.974Z,29.43
2022-08-22T21:05:24.394Z,29.42
2022-08-22T21:08:04.469Z,29.39
2022-08-22T21:10:55.919Z,29.40
2022-08-22T21:13:45.544Z,29.40
2022-08-22T21:16:21.254Z,29.39
2022-08-22T21:18:54.216Z,29.37
2022-08-22T21:21:27.996Z,29.37
2022-08-22T21:24:01.341Z,29.37
2022-08-22T21:26:42.179Z,29.37
2022-08-22T21:29:16.756Z,29.32
2022-08-22T21:31:53.353Z,29.29
2022-08-22T21:34:33.727Z,29.29
2022-08-22T21:37:14.308Z,29.28
2022-08-22T21:39:47.841Z,29.30
2022-08-22T21:42:39.728Z,29.31
2022-08-22T21:45:31.813Z,29.28
2022-08-22T21:48:03.853Z,29.30
2022-08-22T21:50:39.576Z,29.30
2022-08-22T21:53:27.081Z,29.30
2022-08-22T21:56:15.664Z,29.27
2022-08-22T21:58:48.023Z,29.23
2022-08-22T22:01:35.408Z,29.22
2022-08-22T22:04:07.425Z,29.19
2022-08-22T22:06:39.231Z,29.16
2022-08-22T22:09:15.040Z,29.14
2022-08-22T22:11:47.253Z,29.13
2022-08-22T22:14:20.484Z,29.10
2022-08-22T22:16:52.337Z,29.09
2022-08-22T22:19:24.421Z,29.06
2022-08-22T22:21:56.295Z,29.06
2022-08-22T22:24:28.590Z,29.07
2022-08-22T22:27:00.514Z,29.06
2022-08-22T22:29:33.521Z,29.06
2022-08-22T22:32:06.114Z,29.03
2022-08-22T22:34:38.768Z,29.04
2022-08-22T22:37:11.496Z,29.05
2022-08-22T22:39:44.006Z,29.02
2022-08-22T22:42:15.939Z,29.02
2022-08-22T22:44:48.968Z,29.01
2022-08-22T22:47:27.118Z,28.99
2022-08-22T22:49:58.898Z,28.99
2022-08-22T22:52:30.807Z,28.99
2022-08-22T22:55:03.298Z,29.00
2022-08-22T22:57:41.334Z,28.98
2022-08-22T23:00:15.400Z,28.96
2022-08-22T23:02:47.200Z,28.88
2022-08-22T23:05:18.924Z,28.89
2022-08-22T23:07:50.771Z,28.94
2022-08-22T23:10:22.692Z,28.98
2022-08-22T23:12:54.802Z,29.04
2022-08-22T23:15:26.530Z,29.09
2022-08-22T23:17:58.560Z,29.13
2022-08-22T23:20:30.476Z,29.18
2022-08-22T23:23:02.294Z,29.23
2022-08-22T23:25:34.139Z,29.29
2022-08-22T23:28:06.270Z,29.32
2022-08-22T23:30:38.147Z,29.38
2022-08-22T23:33:10.388Z,29.46
2022-08-22T23:35:42.118Z,29.54
2022-08-22T23:38:13.851Z,29.63
2022-08-22T23:40:47.993Z,29.69
2022-08-22T23:43:19.787Z,29.76
2022-08-22T23:45:51.575Z,29.83
2022-08-22T23:48:23.292Z,29.91
2022-08-22T23:50:55.081Z,29.96
2022-08-22T23:53:26.942Z,30.02
2022-08-22T23:55:58.720Z,30.06
2022-08-22T23:58:30.965Z,30.13
